sensor_id;sensor_type;location;lat;lon;timestamp;temperature;humidity
16253;DHT22;8234;41.480;2.306;2022-12-18T00:01:57;9.80;99.90
16253;DHT22;8234;41.480;2.306;2022-12-18T00:12:02;9.90;99.90
16253;DHT22;8234;41.480;2.306;2022-12-18T00:22:18;9.90;99.90
16253;DHT22;8234;41.480;2.306;2022-12-18T00:32:22;9.90;99.90
16253;DHT22;8234;41.480;2.306;2022-12-18T00:42:28;9.80;99.90
16253;DHT22;8234;41.480;2.306;2022-12-18T00:52:49;9.60;99.90
16253;DHT22;8234;41.480;2.306;2022-12-18T01:02:55;9.20;99.90
16253;DHT22;8234;41.480;2.306;2022-12-18T01:12:59;9.10;99.90
16253;DHT22;8234;41.480;2.306;2022-12-18T01:23:04;8.90;99.90
16253;DHT22;8234;41.480;2.306;2022-12-18T01:33:08;8.80;99.90
16253;DHT22;8234;41.480;2.306;2022-12-18T01:43:13;9.70;99.90
16253;DHT22;8234;41.480;2.306;2022-12-18T01:53:20;9.60;99.90
16253;DHT22;8234;41.480;2.306;2022-12-18T02:03:27;9.20;99.90
16253;DHT22;8234;41.480;2.306;2022-12-18T02:13:37;8.90;99.90
16253;DHT22;8234;41.480;2.306;2022-12-18T02:23:56;9.00;99.90
16253;DHT22;8234;41.480;2.306;2022-12-18T02:34:06;8.80;99.90
16253;DHT22;8234;41.480;2.306;2022-12-18T02:44:12;8.70;99.90
16253;DHT22;8234;41.480;2.306;2022-12-18T02:54:25;8.70;99.90
16253;DHT22;8234;41.480;2.306;2022-12-18T03:04:39;8.70;99.90
16253;DHT22;8234;41.480;2.306;2022-12-18T03:14:49;9.00;99.90
16253;DHT22;8234;41.480;2.306;2022-12-18T03:24:56;8.90;99.90
16253;DHT22;8234;41.480;2.306;2022-12-18T03:35:04;8.90;99.90
16253;DHT22;8234;41.480;2.306;2022-12-18T03:45:11;8.90;99.90
16253;DHT22;8234;41.480;2.306;2022-12-18T03:55:20;8.90;99.90
16253;DHT22;8234;41.480;2.306;2022-12-18T04:05:25;8.90;99.90
16253;DHT22;8234;41.480;2.306;2022-12-18T04:15:32;9.10;99.90
16253;DHT22;8234;41.480;2.306;2022-12-18T04:25:38;9.10;99.90
16253;DHT22;8234;41.480;2.306;2022-12-18T04:35:43;9.00;99.90
16253;DHT22;8234;41.480;2.306;2022-12-18T04:45:47;9.20;99.90
16253;DHT22;8234;41.480;2.306;2022-12-18T04:56:02;9.20;99.90
16253;DHT22;8234;41.480;2.306;2022-12-18T05:06:07;9.20;99.90
16253;DHT22;8234;41.480;2.306;2022-12-18T05:16:13;9.20;99.90
16253;DHT22;8234;41.480;2.306;2022-12-18T05:26:18;9.20;99.90
16253;DHT22;8234;41.480;2.306;2022-12-18T05:36:23;9.20;99.90
16253;DHT22;8234;41.480;2.306;2022-12-18T05:46:27;9.10;99.90
16253;DHT22;8234;41.480;2.306;2022-12-18T05:56:34;9.10;99.90
16253;DHT22;8234;41.480;2.306;2022-12-18T06:06:38;9.20;99.90
16253;DHT22;8234;41.480;2.306;2022-12-18T06:16:43;9.10;99.90
16253;DHT22;8234;41.480;2.306;2022-12-18T06:26:47;9.10;99.90
16253;DHT22;8234;41.480;2.306;2022-12-18T06:36:52;9.10;99.90
16253;DHT22;8234;41.480;2.306;2022-12-18T06:46:56;9.00;99.90
16253;DHT22;8234;41.480;2.306;2022-12-18T06:57:02;9.00;99.90
16253;DHT22;8234;41.480;2.306;2022-12-18T07:07:06;8.90;99.90
16253;DHT22;8234;41.480;2.306;2022-12-18T07:17:11;8.90;99.90
16253;DHT22;8234;41.480;2.306;2022-12-18T07:27:15;9.00;99.90
16253;DHT22;8234;41.480;2.306;2022-12-18T07:37:20;9.00;99.90
16253;DHT22;8234;41.480;2.306;2022-12-18T07:47:24;9.10;99.90
16253;DHT22;8234;41.480;2.306;2022-12-18T07:57:31;9.30;99.90
16253;DHT22;8234;41.480;2.306;2022-12-18T08:07:52;9.50;99.90
16253;DHT22;8234;41.480;2.306;2022-12-18T08:17:57;9.70;99.90
16253;DHT22;8234;41.480;2.306;2022-12-18T08:28:01;10.00;99.90
16253;DHT22;8234;41.480;2.306;2022-12-18T08:38:07;10.30;99.90
16253;DHT22;8234;41.480;2.306;2022-12-18T08:48:11;10.40;99.90
16253;DHT22;8234;41.480;2.306;2022-12-18T08:58:24;10.60;99.90
16253;DHT22;8234;41.480;2.306;2022-12-18T09:08:28;11.20;99.90
16253;DHT22;8234;41.480;2.306;2022-12-18T09:18:33;11.90;99.90
16253;DHT22;8234;41.480;2.306;2022-12-18T09:28:37;12.10;99.90
16253;DHT22;8234;41.480;2.306;2022-12-18T09:38:44;12.70;99.90
16253;DHT22;8234;41.480;2.306;2022-12-18T09:48:49;13.30;99.90
16253;DHT22;8234;41.480;2.306;2022-12-18T09:58:58;13.70;99.90
16253;DHT22;8234;41.480;2.306;2022-12-18T10:09:07;14.00;99.90
16253;DHT22;8234;41.480;2.306;2022-12-18T10:19:36;14.50;99.90
16253;DHT22;8234;41.480;2.306;2022-12-18T10:29:42;15.50;99.90
16253;DHT22;8234;41.480;2.306;2022-12-18T10:40:07;16.10;99.90
16253;DHT22;8234;41.480;2.306;2022-12-18T10:50:21;16.20;99.90
16253;DHT22;8234;41.480;2.306;2022-12-18T11:00:34;16.40;99.90
16253;DHT22;8234;41.480;2.306;2022-12-18T11:10:39;16.50;99.90
16253;DHT22;8234;41.480;2.306;2022-12-18T11:20:51;16.90;99.90
16253;DHT22;8234;41.480;2.306;2022-12-18T11:31:12;17.60;99.90
16253;DHT22;8234;41.480;2.306;2022-12-18T11:41:25;17.60;99.90
16253;DHT22;8234;41.480;2.306;2022-12-18T11:51:56;18.30;99.90
16253;DHT22;8234;41.480;2.306;2022-12-18T12:02:16;18.10;99.90
16253;DHT22;8234;41.480;2.306;2022-12-18T12:12:30;18.20;99.90
16253;DHT22;8234;41.480;2.306;2022-12-18T12:22:57;18.60;99.90
16253;DHT22;8234;41.480;2.306;2022-12-18T12:33:14;19.00;99.90
16253;DHT22;8234;41.480;2.306;2022-12-18T12:43:28;19.10;99.90
16253;DHT22;8234;41.480;2.306;2022-12-18T12:53:37;19.60;99.90
16253;DHT22;8234;41.480;2.306;2022-12-18T13:03:52;19.10;99.90
16253;DHT22;8234;41.480;2.306;2022-12-18T13:13:57;17.70;99.90
16253;DHT22;8234;41.480;2.306;2022-12-18T13:24:19;17.50;99.90
16253;DHT22;8234;41.480;2.306;2022-12-18T13:34:27;18.10;99.90
16253;DHT22;8234;41.480;2.306;2022-12-18T13:44:36;18.00;99.90
16253;DHT22;8234;41.480;2.306;2022-12-18T13:54:47;18.20;99.90
16253;DHT22;8234;41.480;2.306;2022-12-18T14:04:54;18.60;99.90
16253;DHT22;8234;41.480;2.306;2022-12-18T14:14:58;19.30;99.90
16253;DHT22;8234;41.480;2.306;2022-12-18T14:25:15;20.10;99.90
16253;DHT22;8234;41.480;2.306;2022-12-18T14:35:20;20.50;99.90
16253;DHT22;8234;41.480;2.306;2022-12-18T14:45:38;19.00;99.90
16253;DHT22;8234;41.480;2.306;2022-12-18T14:55:46;17.50;99.90
16253;DHT22;8234;41.480;2.306;2022-12-18T15:05:51;16.80;99.90
16253;DHT22;8234;41.480;2.306;2022-12-18T15:15:56;17.20;99.90
16253;DHT22;8234;41.480;2.306;2022-12-18T15:26:04;17.10;99.90
16253;DHT22;8234;41.480;2.306;2022-12-18T15:36:12;17.80;99.90
16253;DHT22;8234;41.480;2.306;2022-12-18T15:46:20;17.30;99.90
16253;DHT22;8234;41.480;2.306;2022-12-18T15:56:24;16.20;99.90
16253;DHT22;8234;41.480;2.306;2022-12-18T16:06:47;15.40;99.90
16253;DHT22;8234;41.480;2.306;2022-12-18T16:17:12;14.80;99.90
16253;DHT22;8234;41.480;2.306;2022-12-18T16:27:18;14.50;99.90
16253;DHT22;8234;41.480;2.306;2022-12-18T16:37:23;14.40;99.90
16253;DHT22;8234;41.480;2.306;2022-12-18T16:47:29;14.20;99.90
16253;DHT22;8234;41.480;2.306;2022-12-18T16:57:33;14.00;99.90
16253;DHT22;8234;41.480;2.306;2022-12-18T17:07:39;14.00;99.90
16253;DHT22;8234;41.480;2.306;2022-12-18T17:17:43;13.20;99.90
16253;DHT22;8234;41.480;2.306;2022-12-18T17:27:49;12.50;99.90
16253;DHT22;8234;41.480;2.306;2022-12-18T17:37:53;12.10;99.90
16253;DHT22;8234;41.480;2.306;2022-12-18T17:47:59;11.60;99.90
16253;DHT22;8234;41.480;2.306;2022-12-18T17:58:03;11.40;99.90
16253;DHT22;8234;41.480;2.306;2022-12-18T18:08:08;11.40;99.90
16253;DHT22;8234;41.480;2.306;2022-12-18T18:18:12;11.00;99.90
16253;DHT22;8234;41.480;2.306;2022-12-18T18:28:19;10.90;99.90
16253;DHT22;8234;41.480;2.306;2022-12-18T18:38:23;10.80;99.90
16253;DHT22;8234;41.480;2.306;2022-12-18T18:48:31;10.70;99.90
16253;DHT22;8234;41.480;2.306;2022-12-18T18:58:37;10.60;99.90
16253;DHT22;8234;41.480;2.306;2022-12-18T19:08:42;10.50;99.90
16253;DHT22;8234;41.480;2.306;2022-12-18T19:18:47;10.80;99.90
16253;DHT22;8234;41.480;2.306;2022-12-18T19:28:53;10.60;99.90
16253;DHT22;8234;41.480;2.306;2022-12-18T19:38:59;10.50;99.90
16253;DHT22;8234;41.480;2.306;2022-12-18T19:49:05;10.50;99.90
16253;DHT22;8234;41.480;2.306;2022-12-18T19:59:09;10.60;99.90
16253;DHT22;8234;41.480;2.306;2022-12-18T20:09:15;10.20;99.90
16253;DHT22;8234;41.480;2.306;2022-12-18T20:19:20;10.10;99.90
16253;DHT22;8234;41.480;2.306;2022-12-18T20:29:25;10.40;99.90
16253;DHT22;8234;41.480;2.306;2022-12-18T20:39:30;10.40;99.90
16253;DHT22;8234;41.480;2.306;2022-12-18T20:49:36;10.50;99.90
16253;DHT22;8234;41.480;2.306;2022-12-18T20:59:46;11.00;99.90
16253;DHT22;8234;41.480;2.306;2022-12-18T21:09:52;10.60;99.90
16253;DHT22;8234;41.480;2.306;2022-12-18T21:19:56;10.40;99.90
16253;DHT22;8234;41.480;2.306;2022-12-18T21:30:02;10.50;99.90
16253;DHT22;8234;41.480;2.306;2022-12-18T21:40:06;10.30;99.90
16253;DHT22;8234;41.480;2.306;2022-12-18T21:50:12;10.20;99.90
16253;DHT22;8234;41.480;2.306;2022-12-18T22:00:16;10.10;99.90
16253;DHT22;8234;41.480;2.306;2022-12-18T22:10:22;10.00;99.90
16253;DHT22;8234;41.480;2.306;2022-12-18T22:20:26;9.70;99.90
16253;DHT22;8234;41.480;2.306;2022-12-18T22:30:32;9.60;99.90
16253;DHT22;8234;41.480;2.306;2022-12-18T22:40:36;9.40;99.90
16253;DHT22;8234;41.480;2.306;2022-12-18T22:50:41;9.40;99.90
16253;DHT22;8234;41.480;2.306;2022-12-18T23:00:45;9.30;99.90
16253;DHT22;8234;41.480;2.306;2022-12-18T23:10:52;9.30;99.90
16253;DHT22;8234;41.480;2.306;2022-12-18T23:20:56;9.20;99.90
16253;DHT22;8234;41.480;2.306;2022-12-18T23:31:07;9.20;99.90
16253;DHT22;8234;41.480;2.306;2022-12-18T23:41:13;9.20;99.90
16253;DHT22;8234;41.480;2.306;2022-12-18T23:51:21;9.10;99.90
